Time;durP1;ratioP1;P1;durP2;ratioP2;P2;SDS_P1;SDS_P2;PMS_P1;PMS_P2;Temp;Humidity;BMP_temperature;BMP_pressure;BME280_temperature;BME280_humidity;BME280_pressure;Samples;Min_cycle;Max_cycle;Signal;HPM_P1;HPM_P2
2022/06/19 00:01:46;;;;;;;;;;;;;;;;;;4980914;28;19910;-89
2022/06/19 00:04:12;;;;;;;;;;;;;;;;;;4969013;28;20440;-89
2022/06/19 00:06:38;;;;;;;;;;;;;;;;;;4963417;28;20000;-91
2022/06/19 00:09:04;;;;;;;;;;;;;;;;;;4965173;28;19909;-90
2022/06/19 00:11:30;;;;;;;;;;;;;;;;;;4986962;28;20004;-90
2022/06/19 00:13:56;;;;;;;;;;;;;;;;;;4967744;28;20300;-90
2022/06/19 00:16:22;;;;;;;;;;;;;;;;;;4962424;28;19909;-91
2022/06/19 00:18:48;;;;;;;;;;;;;;;;;;4965658;28;20394;-90
2022/06/19 00:21:16;;;;;;;;;;;;;;;;;;4964891;28;19956;-91
2022/06/19 00:23:42;;;;;;;;;;;;;;;;;;4963745;28;19916;-91
2022/06/19 00:26:08;;;;;;;;;;;;;;;;;;4969797;28;19922;-89
2022/06/19 00:28:34;;;;;;;;;;;;;;;;;;4969909;28;19921;-91
2022/06/19 00:30:59;;;;;;;;;;;;;;;;;;4980911;28;20480;-90
2022/06/19 00:33:25;;;;;;;;;;;;;;;;;;4983623;28;19905;-91
2022/06/19 00:35:54;;;;;;;;;;;;;;;;;;4977171;28;20053;-90
2022/06/19 00:38:20;;;;;;;;;;;;;;;;;;4969217;28;20004;-91
2022/06/19 00:40:46;;;;;;;;;;;;;;;;;;4966487;28;20108;-89
2022/06/19 00:43:12;;;;;;;;;;;;;;;;;;4987750;28;20400;-88
2022/06/19 00:45:38;;;;;;;;;;;;;;;;;;4965754;28;19914;-91
2022/06/19 00:48:04;;;;;;;;;;;;;;;;;;4970512;28;20376;-91
2022/06/19 00:50:30;;;;;;;;;;;;;;;;;;4981116;28;19906;-92
2022/06/19 00:52:55;;;;;;;;;;;;;;;;;;4969771;28;20433;-91
2022/06/19 00:55:21;;;;;;;;;;;;;;;;;;4963897;28;19910;-91
2022/06/19 00:57:47;;;;;;;;;;;;;;;;;;4970304;28;20404;-89
2022/06/19 01:00:13;;;;;;;;;;;;;;;;;;4980854;28;19910;-88
2022/06/19 01:02:39;;;;;;;;;;;;;;;;;;4969111;28;20421;-91
2022/06/19 01:05:05;;;;;;;;;;;;;;;;;;4982437;28;19914;-90
2022/06/19 01:07:31;;;;;;;;;;;;;;;;;;4970990;28;19913;-90
2022/06/19 01:09:57;;;;;;;;;;;;;;;;;;4965831;28;20455;-90
2022/06/19 01:12:23;;;;;;;;;;;;;;;;;;4965467;28;19913;-92
2022/06/19 01:14:49;;;;;;;;;;;;;;;;;;4983933;28;19917;-90
2022/06/19 01:17:15;;;;;;;;;;;;;;;;;;4967687;28;19960;-91
2022/06/19 01:19:43;;;;;;;;;;;;;;;;;;4989590;28;19918;-91
2022/06/19 01:22:09;;;;;;;;;;;;;;;;;;4970886;28;19914;-91
2022/06/19 01:24:34;;;;;;;;;;;;;;;;;;4972759;28;19922;-90
2022/06/19 01:27:01;;;;;;;;;;;;;;;;;;4965069;28;20274;-91
2022/06/19 01:29:26;;;;;;;;;;;;;;;;;;4991617;28;19936;-90
2022/06/19 01:31:52;;;;;;;;;;;;;;;;;;4990662;28;19928;-91
2022/06/19 01:34:27;;;;;;;;;;;;;;;;;;4999124;28;19916;-89
2022/06/19 01:36:53;;;;;;;;;;;;;;;;;;4977853;28;19933;-91
2022/06/19 01:39:19;;;;;;;;;;;;;;;;;;4989018;28;19918;-91
2022/06/19 01:41:45;;;;;;;;;;;;;;;;;;4974274;28;19937;-91
2022/06/19 01:44:11;;;;;;;;;;;;;;;;;;4971494;28;19921;-91
2022/06/19 01:46:37;;;;;;;;;;;;;;;;;;4973599;28;20172;-92
2022/06/19 01:49:03;;;;;;;;;;;;;;;;;;4977097;28;19910;-88
2022/06/19 01:51:29;;;;;;;;;;;;;;;;;;4968928;28;19914;-91
2022/06/19 01:53:54;;;;;;;;;;;;;;;;;;4982794;28;19917;-90
2022/06/19 01:56:20;;;;;;;;;;;;;;;;;;4972971;28;19956;-91
2022/06/19 01:58:46;;;;;;;;;;;;;;;;;;4968359;28;19952;-90
2022/06/19 02:01:12;;;;;;;;;;;;;;;;;;4987996;28;19961;-91
2022/06/19 02:03:38;;;;;;;;;;;;;;;;;;4966630;28;19922;-90
2022/06/19 02:06:04;;;;;;;;;;;;;;;;;;4970334;28;19941;-91
2022/06/19 02:08:30;;;;;;;;;;;;;;;;;;4964286;28;20357;-92
2022/06/19 02:10:56;;;;;;;;;;;;;;;;;;4970063;28;19954;-90
2022/06/19 02:13:22;;;;;;;;;;;;;;;;;;4973186;28;19918;-92
2022/06/19 02:15:48;;;;;;;;;;;;;;;;;;4966794;28;19972;-90
2022/06/19 02:18:14;;;;;;;;;;;;;;;;;;4980542;28;20428;-91
2022/06/19 02:20:47;;;;;;;;;;;;;;;;;;4969702;28;19944;-90
2022/06/19 02:23:13;;;;;;;;;;;;;;;;;;4969320;28;19965;-91
2022/06/19 02:25:39;;;;;;;;;;;;;;;;;;4965834;28;20635;-89
2022/06/19 02:28:05;;;;;;;;;;;;;;;;;;4969749;28;20001;-91
2022/06/19 02:30:31;;;;;;;;;;;;;;;;;;4965108;28;19913;-89
2022/06/19 02:32:57;;;;;;;;;;;;;;;;;;4972859;28;20322;-91
2022/06/19 02:35:23;;;;;;;;;;;;;;;;;;4971830;28;19924;-90
2022/06/19 02:37:50;;;;;;;;;;;;;;;;;;4978399;28;19937;-91
2022/06/19 02:40:16;;;;;;;;;;;;;;;;;;4968022;28;19936;-91
2022/06/19 02:42:42;;;;;;;;;;;;;;;;;;4969013;28;19910;-91
2022/06/19 02:45:10;;;;;;;;;;;;;;;;;;4973298;28;19941;-91
2022/06/19 02:47:36;;;;;;;;;;;;;;;;;;4965350;28;20385;-91
2022/06/19 02:50:04;;;;;;;;;;;;;;;;;;4967749;28;19918;-91
2022/06/19 02:52:30;;;;;;;;;;;;;;;;;;4980956;28;19914;-91
2022/06/19 02:54:56;;;;;;;;;;;;;;;;;;4965392;28;19920;-90
2022/06/19 02:57:22;;;;;;;;;;;;;;;;;;4969366;28;20405;-91
2022/06/19 02:59:48;;;;;;;;;;;;;;;;;;4968377;28;19909;-90
2022/06/19 03:02:14;;;;;;;;;;;;;;;;;;4976561;28;19912;-90
2022/06/19 03:04:40;;;;;;;;;;;;;;;;;;4986892;28;19940;-90
2022/06/19 03:07:06;;;;;;;;;;;;;;;;;;4982922;28;19918;-91
2022/06/19 03:09:32;;;;;;;;;;;;;;;;;;4971571;28;20284;-92
2022/06/19 03:11:58;;;;;;;;;;;;;;;;;;4967360;28;19920;-92
2022/06/19 03:14:27;;;;;;;;;;;;;;;;;;4980962;28;19976;-91
2022/06/19 03:16:53;;;;;;;;;;;;;;;;;;4970603;28;20424;-91
2022/06/19 03:19:19;;;;;;;;;;;;;;;;;;4966818;28;19955;-90
2022/06/19 03:21:44;;;;;;;;;;;;;;;;;;4983540;28;19991;-91
2022/06/19 03:24:10;;;;;;;;;;;;;;;;;;4983935;28;20259;-88
2022/06/19 03:26:36;;;;;;;;;;;;;;;;;;4983433;28;19920;-92
2022/06/19 03:29:02;;;;;;;;;;;;;;;;;;4983261;28;19929;-88
2022/06/19 03:31:28;;;;;;;;;;;;;;;;;;4977869;28;19921;-91
2022/06/19 03:33:54;;;;;;;;;;;;;;;;;;4970728;28;20064;-93
2022/06/19 03:36:20;;;;;;;;;;;;;;;;;;4971376;28;19910;-91
2022/06/19 03:38:46;;;;;;;;;;;;;;;;;;4971474;28;20390;-90
2022/06/19 03:41:12;;;;;;;;;;;;;;;;;;4973201;28;19916;-90
2022/06/19 03:43:38;;;;;;;;;;;;;;;;;;4968381;28;20047;-90
2022/06/19 03:46:05;;;;;;;;;;;;;;;;;;4964345;28;20358;-92
2022/06/19 03:48:31;;;;;;;;;;;;;;;;;;4971038;28;19939;-90
2022/06/19 03:50:57;;;;;;;;;;;;;;;;;;4972865;28;19921;-88
2022/06/19 03:53:23;;;;;;;;;;;;;;;;;;4967945;28;19917;-86
2022/06/19 03:55:49;;;;;;;;;;;;;;;;;;4971007;28;20365;-85
2022/06/19 03:58:15;;;;;;;;;;;;;;;;;;4967510;28;19924;-87
2022/06/19 04:00:40;;;;;;;;;;;;;;;;;;4968994;28;20420;-86
2022/06/19 04:03:07;;;;;;;;;;;;;;;;;;4964850;28;19920;-87
2022/06/19 04:05:32;;;;;;;;;;;;;;;;;;4971984;28;19910;-88
2022/06/19 04:07:59;;;;;;;;;;;;;;;;;;4984706;28;20095;-87
2022/06/19 04:10:25;;;;;;;;;;;;;;;;;;4978174;28;20526;-86
2022/06/19 04:12:51;;;;;;;;;;;;;;;;;;4966484;28;19918;-85
2022/06/19 04:15:17;;;;;;;;;;;;;;;;;;4966221;28;20197;-85
2022/06/19 04:17:43;;;;;;;;;;;;;;;;;;4975519;28;20012;-87
2022/06/19 04:20:09;;;;;;;;;;;;;;;;;;4966928;28;20048;-86
2022/06/19 04:22:35;;;;;;;;;;;;;;;;;;4983066;28;19909;-86
2022/06/19 04:25:01;;;;;;;;;;;;;;;;;;4968681;28;19932;-85
2022/06/19 04:27:26;;;;;;;;;;;;;;;;;;4964299;28;19913;-83
2022/06/19 04:29:52;;;;;;;;;;;;;;;;;;4963320;28;19964;-84
2022/06/19 04:32:18;;;;;;;;;;;;;;;;;;4975199;28;20001;-83
2022/06/19 04:34:44;;;;;;;;;;;;;;;;;;4983315;28;19918;-83
2022/06/19 04:37:10;;;;;;;;;;;;;;;;;;4977332;28;19917;-83
2022/06/19 04:39:36;;;;;;;;;;;;;;;;;;4967404;28;19936;-84
2022/06/19 04:42:02;;;;;;;;;;;;;;;;;;4965593;28;19914;-84
2022/06/19 04:44:28;;;;;;;;;;;;;;;;;;4965086;28;20301;-84
2022/06/19 04:46:54;;;;;;;;;;;;;;;;;;4965378;28;19910;-84
2022/06/19 04:49:20;;;;;;;;;;;;;;;;;;4968478;28;19913;-82
2022/06/19 04:51:46;;;;;;;;;;;;;;;;;;4965745;28;19909;-84
2022/06/19 04:54:12;;;;;;;;;;;;;;;;;;4969538;28;19910;-84
2022/06/19 04:56:37;;;;;;;;;;;;;;;;;;4964841;28;19952;-83
2022/06/19 04:59:03;;;;;;;;;;;;;;;;;;4965430;28;19960;-85
2022/06/19 05:01:29;;;;;;;;;;;;;;;;;;4966383;28;19996;-85
2022/06/19 05:03:55;;;;;;;;;;;;;;;;;;4968175;28;20417;-85
2022/06/19 05:06:21;;;;;;;;;;;;;;;;;;4983053;28;20011;-83
2022/06/19 05:08:47;;;;;;;;;;;;;;;;;;4970544;28;19909;-85
2022/06/19 05:11:13;;;;;;;;;;;;;;;;;;4969088;28;19918;-84
2022/06/19 05:13:39;;;;;;;;;;;;;;;;;;4967978;28;20138;-85
2022/06/19 05:16:05;;;;;;;;;;;;;;;;;;4973006;28;20397;-85
2022/06/19 05:18:31;;;;;;;;;;;;;;;;;;4985213;28;19960;-85
2022/06/19 05:20:56;;;;;;;;;;;;;;;;;;4971263;28;20441;-83
2022/06/19 05:23:22;;;;;;;;;;;;;;;;;;4968036;28;19941;-85
2022/06/19 05:25:48;;;;;;;;;;;;;;;;;;4987806;28;20274;-85
2022/06/19 05:28:14;;;;;;;;;;;;;;;;;;4973032;28;19914;-85
2022/06/19 05:30:40;;;;;;;;;;;;;;;;;;4970028;28;19920;-85
2022/06/19 05:33:06;;;;;;;;;;;;;;;;;;4973092;28;19909;-86
2022/06/19 05:35:32;;;;;;;;;;;;;;;;;;4970346;28;20365;-84
2022/06/19 05:37:58;;;;;;;;;;;;;;;;;;4969206;28;19953;-85
2022/06/19 05:40:23;;;;;;;;;;;;;;;;;;4988792;28;20392;-83
2022/06/19 05:42:57;;;;;;;;;;;;;;;;;;4981928;28;19918;-85
2022/06/19 05:45:23;;;;;;;;;;;;;;;;;;4968774;28;20016;-85
2022/06/19 05:47:49;;;;;;;;;;;;;;;;;;4970695;28;20039;-85
2022/06/19 05:50:15;;;;;;;;;;;;;;;;;;4985237;28;19918;-86
2022/06/19 05:52:41;;;;;;;;;;;;;;;;;;4973985;28;19913;-86
2022/06/19 05:55:07;;;;;;;;;;;;;;;;;;4990327;28;20366;-86
2022/06/19 05:57:33;;;;;;;;;;;;;;;;;;4969901;28;20012;-86
2022/06/19 06:00:00;;;;;;;;;;;;;;;;;;4967714;28;19940;-86
2022/06/19 06:02:26;;;;;;;;;;;;;;;;;;4986000;28;19916;-86
2022/06/19 06:04:52;;;;;;;;;;;;;;;;;;4984456;28;20290;-86
2022/06/19 06:07:18;;;;;;;;;;;;;;;;;;4954423;28;19925;-84
2022/06/19 06:09:44;;;;;;;;;;;;;;;;;;4971515;28;19957;-85
2022/06/19 06:12:10;;;;;;;;;;;;;;;;;;4985039;28;19956;-86
2022/06/19 06:14:36;;;;;;;;;;;;;;;;;;4959481;28;20161;-86
2022/06/19 06:17:02;;;;;;;;;;;;;;;;;;4970215;28;19917;-86
2022/06/19 06:19:28;;;;;;;;;;;;;;;;;;4971146;28;19922;-85
2022/06/19 06:21:54;;;;;;;;;;;;;;;;;;4968847;28;19922;-86
2022/06/19 06:24:20;;;;;;;;;;;;;;;;;;4967740;28;19938;-86
2022/06/19 06:26:46;;;;;;;;;;;;;;;;;;4987167;28;19961;-86
2022/06/19 06:29:12;;;;;;;;;;;;;;;;;;4971207;28;19925;-86
2022/06/19 06:31:37;;;;;;;;;;;;;;;;;;4970422;28;19918;-86
2022/06/19 06:34:03;;;;;;;;;;;;;;;;;;4969935;28;19909;-86
2022/06/19 06:36:29;;;;;;;;;;;;;;;;;;4990237;28;19913;-86
2022/06/19 06:38:55;;;;;;;;;;;;;;;;;;4967708;28;20680;-84
2022/06/19 06:41:21;;;;;;;;;;;;;;;;;;4964897;28;19925;-86
2022/06/19 06:43:47;;;;;;;;;;;;;;;;;;4972527;28;19913;-85
2022/06/19 06:46:13;;;;;;;;;;;;;;;;;;4971055;28;19964;-86
2022/06/19 06:48:39;;;;;;;;;;;;;;;;;;4972899;28;19910;-86
2022/06/19 06:51:04;;;;;;;;;;;;;;;;;;4976157;28;20376;-86
2022/06/19 06:53:30;;;;;;;;;;;;;;;;;;4971191;28;20361;-85
2022/06/19 06:55:56;;;;;;;;;;;;;;;;;;4971486;28;19928;-85
2022/06/19 06:58:22;;;;;;;;;;;;;;;;;;4968744;28;20024;-85
2022/06/19 07:00:48;;;;;;;;;;;;;;;;;;4980194;28;20012;-86
2022/06/19 07:03:14;;;;;;;;;;;;;;;;;;4982883;28;19910;-84
2022/06/19 07:05:40;;;;;;;;;;;;;;;;;;4966912;28;20294;-86
2022/06/19 07:08:06;;;;;;;;;;;;;;;;;;4971973;28;19916;-86
2022/06/19 07:10:32;;;;;;;;;;;;;;;;;;4967587;28;19946;-86
2022/06/19 07:13:00;;;;;;;;;;;;;;;;;;4962079;28;19913;-85
2022/06/19 07:15:26;;;;;;;;;;;;;;;;;;4960100;28;19953;-86
2022/06/19 07:17:52;;;;;;;;;;;;;;;;;;4982108;28;19957;-86
2022/06/19 07:20:18;;;;;;;;;;;;;;;;;;4965576;28;19968;-86
2022/06/19 07:22:44;;;;;;;;;;;;;;;;;;4966172;28;19921;-87
2022/06/19 07:25:09;;;;;;;;;;;;;;;;;;4984829;28;20362;-86
2022/06/19 07:27:35;;;;;;;;;;;;;;;;;;4968018;28;20255;-87
2022/06/19 07:30:01;;;;;;;;;;;;;;;;;;4971182;28;19936;-86
2022/06/19 07:32:27;;;;;;;;;;;;;;;;;;4963962;28;19913;-86
2022/06/19 07:34:53;;;;;;;;;;;;;;;;;;4982277;28;19914;-87
2022/06/19 07:37:19;;;;;;;;;;;;;;;;;;4978875;28;20329;-87
2022/06/19 07:39:45;;;;;;;;;;;;;;;;;;4972458;28;19989;-86
2022/06/19 07:42:11;;;;;;;;;;;;;;;;;;4966481;28;20396;-86
2022/06/19 07:44:37;;;;;;;;;;;;;;;;;;4965836;28;19928;-86
2022/06/19 07:52:32;;;;;;;;;;;;;;;;;;4983341;28;19917;-87
2022/06/19 07:54:58;;;;;;;;;;;;;;;;;;4971752;28;19918;-88
2022/06/19 07:57:24;;;;;;;;;;;;;;;;;;4985401;28;19920;-87
2022/06/19 07:59:50;;;;;;;;;;;;;;;;;;4966698;28;19926;-86
2022/06/19 08:02:16;;;;;;;;;;;;;;;;;;4977895;28;20079;-88
2022/06/19 08:04:42;;;;;;;;;;;;;;;;;;4971378;28;19952;-87
2022/06/19 08:07:08;;;;;;;;;;;;;;;;;;4965413;28;19921;-88
2022/06/19 08:09:33;;;;;;;;;;;;;;;;;;4971425;28;19917;-87
2022/06/19 08:12:00;;;;;;;;;;;;;;;;;;4968145;28;19917;-87
2022/06/19 08:14:26;;;;;;;;;;;;;;;;;;4984406;28;19909;-87
2022/06/19 08:16:52;;;;;;;;;;;;;;;;;;4974494;28;20006;-87
2022/06/19 08:19:17;;;;;;;;;;;;;;;;;;4968373;28;19952;-87
2022/06/19 08:21:43;;;;;;;;;;;;;;;;;;4969578;28;19928;-87
2022/06/19 08:24:09;;;;;;;;;;;;;;;;;;4971846;28;19914;-87
2022/06/19 08:26:35;;;;;;;;;;;;;;;;;;4974161;28;19914;-87
2022/06/19 08:29:01;;;;;;;;;;;;;;;;;;4984717;28;19909;-88
2022/06/19 08:31:27;;;;;;;;;;;;;;;;;;4968358;28;19909;-88
2022/06/19 08:33:53;;;;;;;;;;;;;;;;;;4970911;28;19917;-87
2022/06/19 08:36:19;;;;;;;;;;;;;;;;;;4972575;28;19944;-88
2022/06/19 08:38:45;;;;;;;;;;;;;;;;;;4968252;28;19914;-87
2022/06/19 08:41:11;;;;;;;;;;;;;;;;;;4969727;28;19917;-87
2022/06/19 08:43:37;;;;;;;;;;;;;;;;;;4969534;28;19953;-86
2022/06/19 08:46:02;;;;;;;;;;;;;;;;;;4968937;28;19910;-88
2022/06/19 08:48:28;;;;;;;;;;;;;;;;;;4975808;28;19921;-86
2022/06/19 08:50:54;;;;;;;;;;;;;;;;;;4969098;28;20377;-89
2022/06/19 08:53:20;;;;;;;;;;;;;;;;;;4970453;28;19910;-87
2022/06/19 08:55:46;;;;;;;;;;;;;;;;;;4978756;28;19917;-88
2022/06/19 08:58:12;;;;;;;;;;;;;;;;;;4971739;28;19917;-88
2022/06/19 09:00:38;;;;;;;;;;;;;;;;;;4967365;28;20004;-88
2022/06/19 09:03:04;;;;;;;;;;;;;;;;;;4979296;28;19914;-86
2022/06/19 09:05:36;;;;;;;;;;;;;;;;;;4966048;28;20374;-88
2022/06/19 09:08:02;;;;;;;;;;;;;;;;;;4982201;28;19914;-87
2022/06/19 09:10:28;;;;;;;;;;;;;;;;;;4973818;28;19920;-88
2022/06/19 09:12:54;;;;;;;;;;;;;;;;;;4986347;28;20000;-88
2022/06/19 09:15:20;;;;;;;;;;;;;;;;;;4971442;28;20149;-88
2022/06/19 09:17:46;;;;;;;;;;;;;;;;;;4971369;28;20394;-88
2022/06/19 09:20:11;;;;;;;;;;;;;;;;;;4959183;28;20041;-88
2022/06/19 09:22:37;;;;;;;;;;;;;;;;;;4965609;28;19922;-88
2022/06/19 09:25:03;;;;;;;;;;;;;;;;;;4990571;28;19956;-88
2022/06/19 09:27:29;;;;;;;;;;;;;;;;;;4985255;28;19921;-88
2022/06/19 09:29:55;;;;;;;;;;;;;;;;;;4967579;28;20004;-88
2022/06/19 09:32:21;;;;;;;;;;;;;;;;;;4981261;28;19996;-88
2022/06/19 09:34:47;;;;;;;;;;;;;;;;;;4994772;28;19906;-88
2022/06/19 09:37:13;;;;;;;;;;;;;;;;;;4965714;28;19914;-89
2022/06/19 09:39:42;;;;;;;;;;;;;;;;;;4973281;28;19918;-88
2022/06/19 09:42:08;;;;;;;;;;;;;;;;;;4981175;28;19957;-88
2022/06/19 09:44:34;;;;;;;;;;;;;;;;;;4968148;28;19960;-88
2022/06/19 09:46:59;;;;;;;;;;;;;;;;;;4969749;28;20009;-88
2022/06/19 09:49:25;;;;;;;;;;;;;;;;;;4984839;28;20888;-88
2022/06/19 09:51:51;;;;;;;;;;;;;;;;;;4971590;28;20439;-88
2022/06/19 09:54:17;;;;;;;;;;;;;;;;;;4977702;28;20441;-87
2022/06/19 09:56:43;;;;;;;;;;;;;;;;;;4974103;28;20357;-86
2022/06/19 09:59:09;;;;;;;;;;;;;;;;;;4980417;28;19918;-89
2022/06/19 10:01:35;;;;;;;;;;;;;;;;;;4969153;28;19918;-87
2022/06/19 10:04:01;;;;;;;;;;;;;;;;;;4971081;28;20541;-89
2022/06/19 10:06:27;;;;;;;;;;;;;;;;;;4975603;28;19949;-88
2022/06/19 10:08:53;;;;;;;;;;;;;;;;;;4971596;28;20008;-89
2022/06/19 10:11:19;;;;;;;;;;;;;;;;;;4978334;28;19960;-87
2022/06/19 10:13:45;;;;;;;;;;;;;;;;;;4969886;28;19913;-89
2022/06/19 10:16:11;;;;;;;;;;;;;;;;;;4981705;28;19910;-89
2022/06/19 10:18:37;;;;;;;;;;;;;;;;;;4972914;28;19929;-88
2022/06/19 10:21:03;;;;;;;;;;;;;;;;;;4972104;28;19913;-87
2022/06/19 10:23:29;;;;;;;;;;;;;;;;;;4985308;28;19914;-88
2022/06/19 10:25:55;;;;;;;;;;;;;;;;;;4975077;28;19917;-89
2022/06/19 10:28:21;;;;;;;;;;;;;;;;;;4967829;28;20357;-89
2022/06/19 10:30:47;;;;;;;;;;;;;;;;;;4968314;28;19905;-89
2022/06/19 10:33:13;;;;;;;;;;;;;;;;;;4973383;28;19913;-89
2022/06/19 10:35:38;;;;;;;;;;;;;;;;;;4975900;28;19917;-87
2022/06/19 10:38:04;;;;;;;;;;;;;;;;;;4970596;28;19973;-88
2022/06/19 10:40:30;;;;;;;;;;;;;;;;;;4974134;28;19917;-88
2022/06/19 10:42:56;;;;;;;;;;;;;;;;;;4967335;28;19913;-89
2022/06/19 10:45:22;;;;;;;;;;;;;;;;;;4970368;28;19979;-87
2022/06/19 10:47:48;;;;;;;;;;;;;;;;;;4967630;28;20286;-90
2022/06/19 10:50:14;;;;;;;;;;;;;;;;;;4969117;28;19925;-84
2022/06/19 10:52:40;;;;;;;;;;;;;;;;;;4968695;28;20337;-84
2022/06/19 10:55:05;;;;;;;;;;;;;;;;;;4976294;28;19913;-85
2022/06/19 10:57:32;;;;;;;;;;;;;;;;;;4968712;28;20024;-84
2022/06/19 10:59:58;;;;;;;;;;;;;;;;;;4964014;28;19918;-84
2022/06/19 11:05:08;;;;;;;;;;;;;;;;;;4984033;28;20479;-84
2022/06/19 11:07:34;;;;;;;;;;;;;;;;;;4970997;28;19909;-84
2022/06/19 11:10:00;;;;;;;;;;;;;;;;;;4971119;28;19918;-84
2022/06/19 11:12:26;;;;;;;;;;;;;;;;;;4972360;28;19914;-84
2022/06/19 11:14:52;;;;;;;;;;;;;;;;;;4971986;28;19910;-84
2022/06/19 11:17:18;;;;;;;;;;;;;;;;;;4964910;28;19917;-84
2022/06/19 11:19:45;;;;;;;;;;;;;;;;;;4964655;28;19914;-84
2022/06/19 11:22:11;;;;;;;;;;;;;;;;;;4970578;28;19996;-84
2022/06/19 11:24:44;;;;;;;;;;;;;;;;;;4969376;28;20066;-85
2022/06/19 11:27:10;;;;;;;;;;;;;;;;;;4969640;28;20437;-84
2022/06/19 11:29:36;;;;;;;;;;;;;;;;;;4980993;28;20115;-84
2022/06/19 11:32:02;;;;;;;;;;;;;;;;;;4972626;28;19940;-84
2022/06/19 11:34:43;;;;;;;;;;;;;;;;;;4970929;28;19961;-84
2022/06/19 11:37:10;;;;;;;;;;;;;;;;;;4969061;28;19920;-85
2022/06/19 11:39:36;;;;;;;;;;;;;;;;;;4966965;28;19926;-84
2022/06/19 11:42:02;;;;;;;;;;;;;;;;;;4966814;28;20012;-85
2022/06/19 11:44:28;;;;;;;;;;;;;;;;;;4971740;28;20047;-85
2022/06/19 11:46:54;;;;;;;;;;;;;;;;;;4967513;28;19906;-90
2022/06/19 11:49:20;;;;;;;;;;;;;;;;;;4971305;28;19914;-90
2022/06/19 11:51:46;;;;;;;;;;;;;;;;;;4980705;28;19905;-89
2022/06/19 11:54:12;;;;;;;;;;;;;;;;;;4969299;28;19909;-89
2022/06/19 11:56:38;;;;;;;;;;;;;;;;;;4970275;28;19920;-90
2022/06/19 11:59:04;;;;;;;;;;;;;;;;;;4967377;28;20004;-89
2022/06/19 12:01:30;;;;;;;;;;;;;;;;;;4972616;28;20013;-88
2022/06/19 12:03:56;;;;;;;;;;;;;;;;;;4970913;28;20011;-90
2022/06/19 12:06:22;;;;;;;;;;;;;;;;;;4965842;28;19920;-89
2022/06/19 12:08:48;;;;;;;;;;;;;;;;;;4969404;28;20219;-90
2022/06/19 12:11:14;;;;;;;;;;;;;;;;;;4971268;28;20078;-89
2022/06/19 12:13:39;;;;;;;;;;;;;;;;;;4970395;28;20035;-90
2022/06/19 12:16:05;;;;;;;;;;;;;;;;;;4969578;28;19914;-90
2022/06/19 12:18:31;;;;;;;;;;;;;;;;;;4974292;28;19918;-89
2022/06/19 12:20:57;;;;;;;;;;;;;;;;;;4974331;28;19913;-88
2022/06/19 12:23:23;;;;;;;;;;;;;;;;;;4968497;28;19910;-89
2022/06/19 12:25:49;;;;;;;;;;;;;;;;;;4966126;28;19918;-89
2022/06/19 12:28:15;;;;;;;;;;;;;;;;;;4972036;28;19957;-90
2022/06/19 12:30:41;;;;;;;;;;;;;;;;;;4964620;28;19973;-89
2022/06/19 12:33:07;;;;;;;;;;;;;;;;;;4969034;28;20009;-90
2022/06/19 12:35:33;;;;;;;;;;;;;;;;;;4971427;28;19917;-90
2022/06/19 12:37:59;;;;;;;;;;;;;;;;;;4980334;28;19926;-89
2022/06/19 12:40:25;;;;;;;;;;;;;;;;;;4970662;28;19913;-90
2022/06/19 12:42:50;;;;;;;;;;;;;;;;;;4969926;28;20416;-91
2022/06/19 12:45:16;;;;;;;;;;;;;;;;;;4967602;28;19997;-91
2022/06/19 12:47:42;;;;;;;;;;;;;;;;;;4983325;28;19936;-90
2022/06/19 12:50:08;;;;;;;;;;;;;;;;;;4985624;28;19913;-91
2022/06/19 12:52:34;;;;;;;;;;;;;;;;;;4969265;28;19943;-91
2022/06/19 12:55:00;;;;;;;;;;;;;;;;;;4982299;28;20370;-91
2022/06/19 12:57:26;;;;;;;;;;;;;;;;;;4973269;28;20416;-90
2022/06/19 12:59:52;;;;;;;;;;;;;;;;;;4967013;28;20185;-89
2022/06/19 13:02:18;;;;;;;;;;;;;;;;;;4967114;28;20154;-91
2022/06/19 13:04:44;;;;;;;;;;;;;;;;;;4987952;28;19933;-91
2022/06/19 13:07:10;;;;;;;;;;;;;;;;;;4971754;28;19961;-91
2022/06/19 13:09:35;;;;;;;;;;;;;;;;;;4975071;28;19972;-91
2022/06/19 13:12:01;;;;;;;;;;;;;;;;;;4972484;28;19913;-90
2022/06/19 13:14:27;;;;;;;;;;;;;;;;;;4972906;28;19913;-90
2022/06/19 13:16:53;;;;;;;;;;;;;;;;;;4987561;28;19925;-90
2022/06/19 13:19:19;;;;;;;;;;;;;;;;;;4969031;28;19918;-91
2022/06/19 13:21:45;;;;;;;;;;;;;;;;;;4973141;28;19914;-91
2022/06/19 13:24:11;;;;;;;;;;;;;;;;;;4970013;28;19953;-91
2022/06/19 13:29:21;;;;;;;;;;;;;;;;;;4988772;28;19924;-91
2022/06/19 13:31:47;;;;;;;;;;;;;;;;;;4983263;28;19910;-91
2022/06/19 13:34:13;;;;;;;;;;;;;;;;;;4970920;28;19914;-92
2022/06/19 13:36:39;;;;;;;;;;;;;;;;;;4987527;28;19910;-89
2022/06/19 13:39:05;;;;;;;;;;;;;;;;;;4967978;28;19914;-92
2022/06/19 13:41:31;;;;;;;;;;;;;;;;;;4972121;28;19913;-93
2022/06/19 13:43:57;;;;;;;;;;;;;;;;;;4965718;28;19941;-91
2022/06/19 13:46:23;;;;;;;;;;;;;;;;;;4966386;28;20001;-93
2022/06/19 13:48:49;;;;;;;;;;;;;;;;;;4967271;28;19913;-93
2022/06/19 13:51:15;;;;;;;;;;;;;;;;;;4973526;28;19949;-93
2022/06/19 13:53:40;;;;;;;;;;;;;;;;;;4972312;28;19910;-93
2022/06/19 13:56:06;;;;;;;;;;;;;;;;;;4989123;28;19913;-93
2022/06/19 13:58:33;;;;;;;;;;;;;;;;;;4971412;28;19929;-93
2022/06/19 14:00:59;;;;;;;;;;;;;;;;;;4976110;28;19917;-91
2022/06/19 14:04:45;;;;;;;;;;;;;;;;;;4968775;28;20320;-93
2022/06/19 14:06:10;;;;;;;;;;;;;;;;;;4987433;28;19913;-93
2022/06/19 14:08:36;;;;;;;;;;;;;;;;;;4972720;28;20001;-94
2022/06/19 14:11:02;;;;;;;;;;;;;;;;;;4970236;28;19913;-92
2022/06/19 14:13:28;;;;;;;;;;;;;;;;;;4986947;28;19917;-93
2022/06/19 14:15:54;;;;;;;;;;;;;;;;;;4988944;28;19916;-90
2022/06/19 14:18:20;;;;;;;;;;;;;;;;;;4968862;28;19913;-94
2022/06/19 14:20:46;;;;;;;;;;;;;;;;;;4986131;28;19913;-93
2022/06/19 14:23:12;;;;;;;;;;;;;;;;;;4971895;28;20313;-94
2022/06/19 14:25:38;;;;;;;;;;;;;;;;;;4982261;28;19918;-92
2022/06/19 14:28:10;;;;;;;;;;;;;;;;;;4966628;28;19953;-93
2022/06/19 14:30:36;;;;;;;;;;;;;;;;;;4981795;28;20433;-93
2022/06/19 14:33:02;;;;;;;;;;;;;;;;;;4970706;28;19914;-93
2022/06/19 14:35:28;;;;;;;;;;;;;;;;;;4970952;28;19997;-92
2022/06/19 14:37:58;;;;;;;;;;;;;;;;;;4975173;28;19968;-93
2022/06/19 14:40:24;;;;;;;;;;;;;;;;;;4969110;28;19987;-92
2022/06/19 14:42:50;;;;;;;;;;;;;;;;;;4975217;28;20370;-93
2022/06/19 14:45:16;;;;;;;;;;;;;;;;;;4972438;28;19917;-93
2022/06/19 14:47:42;;;;;;;;;;;;;;;;;;4967939;28;19957;-92
2022/06/19 14:50:08;;;;;;;;;;;;;;;;;;4970626;28;19917;-93
2022/06/19 14:52:34;;;;;;;;;;;;;;;;;;4988596;28;19914;-93
2022/06/19 14:55:00;;;;;;;;;;;;;;;;;;4968538;28;19917;-94
2022/06/19 14:57:26;;;;;;;;;;;;;;;;;;4966592;28;19925;-93
2022/06/19 14:59:52;;;;;;;;;;;;;;;;;;4971094;28;19914;-93
2022/06/19 15:02:17;;;;;;;;;;;;;;;;;;4967214;28;19941;-93
2022/06/19 15:04:43;;;;;;;;;;;;;;;;;;4969505;28;19906;-92
2022/06/19 15:07:09;;;;;;;;;;;;;;;;;;4979987;28;19925;-93
2022/06/19 15:09:38;;;;;;;;;;;;;;;;;;4988094;28;19972;-93
2022/06/19 15:12:04;;;;;;;;;;;;;;;;;;4968890;28;20529;-92
2022/06/19 15:14:30;;;;;;;;;;;;;;;;;;4969748;28;20377;-95
2022/06/19 15:16:57;;;;;;;;;;;;;;;;;;4985043;28;19914;-88
2022/06/19 15:19:23;;;;;;;;;;;;;;;;;;4983572;28;19917;-87
2022/06/19 15:21:49;;;;;;;;;;;;;;;;;;4979755;28;19933;-88
2022/06/19 15:24:15;;;;;;;;;;;;;;;;;;4981804;28;19910;-92
2022/06/19 15:26:41;;;;;;;;;;;;;;;;;;4968377;28;20438;-93
2022/06/19 15:29:07;;;;;;;;;;;;;;;;;;4986637;28;20337;-92
2022/06/19 15:31:33;;;;;;;;;;;;;;;;;;4978284;28;19933;-93
2022/06/19 15:33:59;;;;;;;;;;;;;;;;;;4966808;28;20008;-93
2022/06/19 15:36:24;;;;;;;;;;;;;;;;;;4968902;28;19917;-94
2022/06/19 15:38:54;;;;;;;;;;;;;;;;;;4967531;28;19917;-93
2022/06/19 15:41:20;;;;;;;;;;;;;;;;;;4982552;28;20014;-92
2022/06/19 15:43:46;;;;;;;;;;;;;;;;;;4976215;28;19945;-92
2022/06/19 15:46:12;;;;;;;;;;;;;;;;;;4977406;28;19910;-91
2022/06/19 15:48:39;;;;;;;;;;;;;;;;;;4982126;28;19932;-93
2022/06/19 15:51:04;;;;;;;;;;;;;;;;;;4970583;28;19909;-92
2022/06/19 15:53:30;;;;;;;;;;;;;;;;;;4980568;28;19945;-92
2022/06/19 15:55:56;;;;;;;;;;;;;;;;;;4967734;28;19906;-92
2022/06/19 15:58:22;;;;;;;;;;;;;;;;;;4970142;28;20004;-93
2022/06/19 16:00:52;;;;;;;;;;;;;;;;;;4965015;28;19983;-90
2022/06/19 16:03:18;;;;;;;;;;;;;;;;;;4982067;28;19916;-92
2022/06/19 16:05:44;;;;;;;;;;;;;;;;;;4977222;28;19905;-93
2022/06/19 16:08:10;;;;;;;;;;;;;;;;;;4981275;28;20003;-93
2022/06/19 16:10:36;;;;;;;;;;;;;;;;;;4970937;28;19917;-93
2022/06/19 16:13:02;;;;;;;;;;;;;;;;;;4958362;28;19914;-92
2022/06/19 16:15:28;;;;;;;;;;;;;;;;;;4975883;28;20372;-93
2022/06/19 16:17:54;;;;;;;;;;;;;;;;;;4971513;28;20464;-93
2022/06/19 16:20:20;;;;;;;;;;;;;;;;;;4971284;28;19909;-93
2022/06/19 16:22:46;;;;;;;;;;;;;;;;;;4970765;28;20017;-91
2022/06/19 16:25:12;;;;;;;;;;;;;;;;;;4983209;28;20016;-92
2022/06/19 16:27:38;;;;;;;;;;;;;;;;;;4971265;28;20020;-90
2022/06/19 16:30:04;;;;;;;;;;;;;;;;;;4978651;28;19907;-93
2022/06/19 16:32:30;;;;;;;;;;;;;;;;;;4982723;28;19925;-92
2022/06/19 16:45:55;;;;;;;;;;;;;;;;;;4983223;28;19920;-92
2022/06/19 16:48:21;;;;;;;;;;;;;;;;;;4972543;28;19940;-93
2022/06/19 16:50:46;;;;;;;;;;;;;;;;;;4968219;28;19921;-91
2022/06/19 16:53:12;;;;;;;;;;;;;;;;;;4970528;28;19909;-89
2022/06/19 16:55:38;;;;;;;;;;;;;;;;;;4973737;28;19905;-92
2022/06/19 16:58:04;;;;;;;;;;;;;;;;;;4970981;28;20005;-92
2022/06/19 17:00:30;;;;;;;;;;;;;;;;;;4976606;28;19910;-90